Hovedside
METAR-TAF:

METAR-TAF

Lufthavner :

Antakya, Tyrkia

breddegrad: 36-21-46N, lengdegrad: 36-16-56E, høyde over havet: 1950 m

Gjeldene værobservasjon

Denne rapporten ble laget for 21 minutter siden, klokken 03:50 UTC
Vind 9 kt fra Nordøst
Temperatur 3°C
Luftfuktighet 81%
Trykk 1024 hPa
Sikt 10 km eller mer
Spredte skyer i en høyde av 3500 ft
Brutte skyer i en høyde av 9000 ft

METAR: LTDA 290350Z 04009KT 9999 SCT035 BKN090 03/00 Q1024 NOSIG

Tid: 07:11 (04:11 UTC)

Varsel

Denne rapporten ble laget for 2 timer og 31 minutter siden, klokken 01:40 UTC
Varsel gyldig fra 29. klokken 03 UTC til 29. klokken 12 UTC
Vind 12 kt fra Nordøst
Sikt 10 km eller mer
Spredte skyer i en høyde av 3500 ft
Brutte skyer i en høyde av 9000 ft

TAF: LTDA 290140Z 2903/2912 04012KT 9999 SCT035 BKN090

Værobservasjoner og værvarsel for over 4000 flyplasser (METAR- og TAF-rapporter).

Tilgjengelige stasjoner er representert av de røde og gule prikkene på kartet.

Hold musepekeren over prikken for å se navnet på stasjonen.

Klikk så for å se værobservasjoner og -varsler.

For å forandre kartet kan du klikke på den grønne knappen med svart kryss for å zoome inn, på den grønne knappen med strek for å zoome ut, eller på de grønne pilene for å se tilstøtende kart.


METAR-TAF: